sensor_id;sensor_type;location;lat;lon;timestamp;pressure;altitude;pressure_sealevel;temperature;humidity
23616;BME280;11985;49.404;7.734;2023-03-01T00:00:48;98122.69;;;-2.69;79.59
23616;BME280;11985;49.404;7.734;2023-03-01T00:05:49;98115.69;;;-2.67;79.48
23616;BME280;11985;49.404;7.734;2023-03-01T00:11:01;98120.25;;;-2.70;79.81
23616;BME280;11985;49.404;7.734;2023-03-01T00:16:04;98122.69;;;-2.69;80.08
23616;BME280;11985;49.404;7.734;2023-03-01T00:21:06;98116.72;;;-2.69;79.89
23616;BME280;11985;49.404;7.734;2023-03-01T00:26:11;98115.09;;;-2.70;80.55
23616;BME280;11985;49.404;7.734;2023-03-01T00:31:15;98118.66;;;-2.73;80.48
23616;BME280;11985;49.404;7.734;2023-03-01T00:36:17;98108.69;;;-2.77;81.07
23616;BME280;11985;49.404;7.734;2023-03-01T00:41:21;98106.41;;;-2.82;81.20
23616;BME280;11985;49.404;7.734;2023-03-01T00:46:24;98109.28;;;-2.86;81.65
23616;BME280;11985;49.404;7.734;2023-03-01T00:51:27;98115.25;;;-2.86;82.04
23616;BME280;11985;49.404;7.734;2023-03-01T00:56:31;98111.34;;;-2.92;81.92
23616;BME280;11985;49.404;7.734;2023-03-01T01:01:32;98125.28;;;-2.94;82.44
23616;BME280;11985;49.404;7.734;2023-03-01T01:06:35;98125.56;;;-2.99;82.79
23616;BME280;11985;49.404;7.734;2023-03-01T01:11:39;98122.34;;;-3.02;83.22
23616;BME280;11985;49.404;7.734;2023-03-01T01:16:40;98109.69;;;-3.05;83.41
23616;BME280;11985;49.404;7.734;2023-03-01T01:21:42;98105.63;;;-3.09;83.63
23616;BME280;11985;49.404;7.734;2023-03-01T01:26:46;98096.44;;;-3.13;84.44
23616;BME280;11985;49.404;7.734;2023-03-01T01:31:49;98086.31;;;-3.16;84.75
23616;BME280;11985;49.404;7.734;2023-03-01T01:36:52;98085.84;;;-3.22;84.99
23616;BME280;11985;49.404;7.734;2023-03-01T01:41:55;98079.94;;;-3.24;85.65
23616;BME280;11985;49.404;7.734;2023-03-01T01:46:58;98074.25;;;-3.29;85.64
23616;BME280;11985;49.404;7.734;2023-03-01T01:52:07;98069.03;;;-3.27;86.21
23616;BME280;11985;49.404;7.734;2023-03-01T01:57:17;98049.53;;;-3.31;86.53
23616;BME280;11985;49.404;7.734;2023-03-01T02:02:20;98049.63;;;-3.33;86.78
23616;BME280;11985;49.404;7.734;2023-03-01T02:07:23;98036.00;;;-3.35;87.24
23616;BME280;11985;49.404;7.734;2023-03-01T02:12:27;98032.72;;;-3.37;87.29
23616;BME280;11985;49.404;7.734;2023-03-01T02:17:30;98034.78;;;-3.42;87.92
23616;BME280;11985;49.404;7.734;2023-03-01T02:22:32;98021.25;;;-3.46;88.00
23616;BME280;11985;49.404;7.734;2023-03-01T02:27:40;98022.81;;;-3.43;88.28
23616;BME280;11985;49.404;7.734;2023-03-01T02:32:51;98017.66;;;-3.43;88.59
23616;BME280;11985;49.404;7.734;2023-03-01T02:37:53;98016.03;;;-3.44;89.00
23616;BME280;11985;49.404;7.734;2023-03-01T02:42:58;98013.00;;;-3.51;89.14
23616;BME280;11985;49.404;7.734;2023-03-01T02:48:01;98005.50;;;-3.54;89.74
23616;BME280;11985;49.404;7.734;2023-03-01T02:53:07;98003.94;;;-3.56;89.70
23616;BME280;11985;49.404;7.734;2023-03-01T02:58:09;98002.38;;;-3.59;90.39
23616;BME280;11985;49.404;7.734;2023-03-01T03:03:13;97999.91;;;-3.60;90.71
23616;BME280;11985;49.404;7.734;2023-03-01T03:08:15;97989.69;;;-3.62;90.64
23616;BME280;11985;49.404;7.734;2023-03-01T03:13:24;97974.34;;;-3.63;91.08
23616;BME280;11985;49.404;7.734;2023-03-01T03:18:29;97964.06;;;-3.63;91.46
23616;BME280;11985;49.404;7.734;2023-03-01T03:23:31;97966.63;;;-3.63;91.89
23616;BME280;11985;49.404;7.734;2023-03-01T03:28:33;97972.50;;;-3.61;91.97
23616;BME280;11985;49.404;7.734;2023-03-01T03:33:37;97963.44;;;-3.67;91.95
23616;BME280;11985;49.404;7.734;2023-03-01T03:38:39;97968.16;;;-3.74;92.20
23616;BME280;11985;49.404;7.734;2023-03-01T03:43:42;97957.16;;;-3.76;92.70
23616;BME280;11985;49.404;7.734;2023-03-01T03:48:45;97958.88;;;-3.76;92.97
23616;BME280;11985;49.404;7.734;2023-03-01T03:53:47;97956.59;;;-3.81;93.48
23616;BME280;11985;49.404;7.734;2023-03-01T03:58:48;97945.69;;;-3.84;93.46
23616;BME280;11985;49.404;7.734;2023-03-01T04:03:51;97946.31;;;-3.81;94.20
23616;BME280;11985;49.404;7.734;2023-03-01T04:08:54;97943.03;;;-3.83;94.04
23616;BME280;11985;49.404;7.734;2023-03-01T04:13:58;97944.03;;;-3.85;94.45
23616;BME280;11985;49.404;7.734;2023-03-01T04:19:01;97936.41;;;-3.87;94.40
23616;BME280;11985;49.404;7.734;2023-03-01T04:24:04;97935.69;;;-3.89;94.84
23616;BME280;11985;49.404;7.734;2023-03-01T04:29:05;97921.09;;;-3.88;94.98
23616;BME280;11985;49.404;7.734;2023-03-01T04:34:08;97924.88;;;-3.94;95.26
23616;BME280;11985;49.404;7.734;2023-03-01T04:39:10;97935.19;;;-3.94;95.09
23616;BME280;11985;49.404;7.734;2023-03-01T04:44:13;97927.81;;;-4.00;95.70
23616;BME280;11985;49.404;7.734;2023-03-01T04:49:16;97938.50;;;-4.06;95.97
23616;BME280;11985;49.404;7.734;2023-03-01T04:54:17;97941.22;;;-3.95;96.46
23616;BME280;11985;49.404;7.734;2023-03-01T04:59:19;97942.41;;;-3.74;96.19
23616;BME280;11985;49.404;7.734;2023-03-01T05:04:24;97938.13;;;-3.60;95.70
23616;BME280;11985;49.404;7.734;2023-03-01T05:09:26;97942.34;;;-3.59;95.01
23616;BME280;11985;49.404;7.734;2023-03-01T05:14:27;97938.31;;;-3.63;94.90
23616;BME280;11985;49.404;7.734;2023-03-01T05:19:30;97936.06;;;-3.55;95.02
23616;BME280;11985;49.404;7.734;2023-03-01T05:24:34;97934.94;;;-3.51;94.58
23616;BME280;11985;49.404;7.734;2023-03-01T05:29:36;97937.84;;;-3.43;94.53
23616;BME280;11985;49.404;7.734;2023-03-01T05:34:41;97935.03;;;-3.40;93.93
23616;BME280;11985;49.404;7.734;2023-03-01T05:39:43;97927.00;;;-3.35;93.97
23616;BME280;11985;49.404;7.734;2023-03-01T05:44:44;97931.97;;;-3.32;93.82
23616;BME280;11985;49.404;7.734;2023-03-01T05:49:47;97925.06;;;-3.32;93.25
23616;BME280;11985;49.404;7.734;2023-03-01T05:54:50;97928.25;;;-3.41;93.57
23616;BME280;11985;49.404;7.734;2023-03-01T05:59:52;97940.09;;;-3.38;93.62
23616;BME280;11985;49.404;7.734;2023-03-01T06:04:54;97937.31;;;-3.35;93.76
23616;BME280;11985;49.404;7.734;2023-03-01T06:09:56;97937.94;;;-3.32;93.82
23616;BME280;11985;49.404;7.734;2023-03-01T06:14:58;97936.31;;;-3.33;93.81
23616;BME280;11985;49.404;7.734;2023-03-01T06:20:01;97928.56;;;-3.33;93.72
23616;BME280;11985;49.404;7.734;2023-03-01T06:25:03;97922.06;;;-3.26;93.77
23616;BME280;11985;49.404;7.734;2023-03-01T06:30:07;97919.38;;;-3.11;93.61
23616;BME280;11985;49.404;7.734;2023-03-01T06:35:12;97916.69;;;-2.97;93.53
23616;BME280;11985;49.404;7.734;2023-03-01T06:40:15;97919.47;;;-3.00;92.73
23616;BME280;11985;49.404;7.734;2023-03-01T06:45:18;97911.72;;;-3.00;92.94
23616;BME280;11985;49.404;7.734;2023-03-01T06:50:21;97910.09;;;-3.01;93.06
23616;BME280;11985;49.404;7.734;2023-03-01T06:55:23;97907.91;;;-2.95;92.96
23616;BME280;11985;49.404;7.734;2023-03-01T07:00:24;97915.13;;;-2.87;92.89
23616;BME280;11985;49.404;7.734;2023-03-01T07:05:28;97913.84;;;-2.69;92.89
23616;BME280;11985;49.404;7.734;2023-03-01T07:10:30;97903.91;;;-2.49;92.52
23616;BME280;11985;49.404;7.734;2023-03-01T07:15:31;97897.13;;;-2.39;92.07
23616;BME280;11985;49.404;7.734;2023-03-01T07:20:34;97891.06;;;-2.38;91.37
23616;BME280;11985;49.404;7.734;2023-03-01T07:25:36;97903.28;;;-2.29;91.29
23616;BME280;11985;49.404;7.734;2023-03-01T07:30:38;97897.69;;;-2.23;90.67
23616;BME280;11985;49.404;7.734;2023-03-01T07:35:42;97896.31;;;-2.16;90.48
23616;BME280;11985;49.404;7.734;2023-03-01T07:40:43;97893.34;;;-1.98;89.62
23616;BME280;11985;49.404;7.734;2023-03-01T07:45:45;97887.31;;;-1.75;88.77
23616;BME280;11985;49.404;7.734;2023-03-01T07:50:48;97886.25;;;-1.72;87.72
23616;BME280;11985;49.404;7.734;2023-03-01T07:55:49;97887.09;;;-1.72;87.20
23616;BME280;11985;49.404;7.734;2023-03-01T08:00:51;97887.09;;;-1.72;86.94
23616;BME280;11985;49.404;7.734;2023-03-01T08:05:54;97876.06;;;-1.63;86.89
23616;BME280;11985;49.404;7.734;2023-03-01T08:10:56;97881.25;;;-1.51;85.62
23616;BME280;11985;49.404;7.734;2023-03-01T08:16:01;97888.06;;;-1.39;84.91
23616;BME280;11985;49.404;7.734;2023-03-01T08:21:05;97872.56;;;-1.28;84.94
23616;BME280;11985;49.404;7.734;2023-03-01T08:26:08;97872.56;;;-1.06;84.25
23616;BME280;11985;49.404;7.734;2023-03-01T08:31:14;97865.66;;;-0.83;82.82
23616;BME280;11985;49.404;7.734;2023-03-01T08:36:18;97865.25;;;-0.67;81.83
23616;BME280;11985;49.404;7.734;2023-03-01T08:41:21;97861.72;;;-0.55;80.50
23616;BME280;11985;49.404;7.734;2023-03-01T08:46:22;97855.53;;;-0.31;80.28
23616;BME280;11985;49.404;7.734;2023-03-01T08:51:25;97849.25;;;-0.29;79.17
23616;BME280;11985;49.404;7.734;2023-03-01T08:56:27;97841.22;;;-0.14;78.56
23616;BME280;11985;49.404;7.734;2023-03-01T09:01:29;97837.75;;;-0.04;77.37
23616;BME280;11985;49.404;7.734;2023-03-01T09:06:32;97837.63;;;0.19;77.37
23616;BME280;11985;49.404;7.734;2023-03-01T09:11:34;97833.59;;;0.47;76.61
23616;BME280;11985;49.404;7.734;2023-03-01T09:16:36;97829.13;;;0.59;75.19
23616;BME280;11985;49.404;7.734;2023-03-01T09:21:39;97824.81;;;0.69;75.13
23616;BME280;11985;49.404;7.734;2023-03-01T09:26:41;97835.59;;;1.04;74.38
23616;BME280;11985;49.404;7.734;2023-03-01T09:31:43;97830.19;;;1.27;73.79
23616;BME280;11985;49.404;7.734;2023-03-01T09:36:46;97821.47;;;1.38;72.42
23616;BME280;11985;49.404;7.734;2023-03-01T09:41:51;97810.81;;;1.41;71.69
23616;BME280;11985;49.404;7.734;2023-03-01T09:46:55;97807.16;;;1.72;71.41
23616;BME280;11985;49.404;7.734;2023-03-01T09:52:04;97815.19;;;1.98;70.20
23616;BME280;11985;49.404;7.734;2023-03-01T09:57:19;97802.78;;;2.02;69.38
23616;BME280;11985;49.404;7.734;2023-03-01T10:02:26;97810.25;;;2.34;68.87
23616;BME280;11985;49.404;7.734;2023-03-01T10:07:43;97813.44;;;2.55;67.47
23616;BME280;11985;49.404;7.734;2023-03-01T10:12:46;97810.09;;;2.35;66.74
23616;BME280;11985;49.404;7.734;2023-03-01T10:17:51;97804.19;;;2.43;66.77
23616;BME280;11985;49.404;7.734;2023-03-01T10:22:55;97801.41;;;2.54;66.31
23616;BME280;11985;49.404;7.734;2023-03-01T10:28:02;97801.09;;;2.67;66.01
23616;BME280;11985;49.404;7.734;2023-03-01T10:33:16;97791.72;;;2.84;65.09
23616;BME280;11985;49.404;7.734;2023-03-01T10:38:20;97788.03;;;2.77;64.53
23616;BME280;11985;49.404;7.734;2023-03-01T10:43:22;97790.63;;;2.77;64.80
23616;BME280;11985;49.404;7.734;2023-03-01T10:48:26;97779.81;;;2.81;65.10
23616;BME280;11985;49.404;7.734;2023-03-01T10:53:32;97779.25;;;3.05;64.67
23616;BME280;11985;49.404;7.734;2023-03-01T10:58:35;97772.44;;;3.04;63.96
23616;BME280;11985;49.404;7.734;2023-03-01T11:03:38;97769.72;;;3.24;63.95
23616;BME280;11985;49.404;7.734;2023-03-01T11:08:43;97756.72;;;3.24;63.10
23616;BME280;11985;49.404;7.734;2023-03-01T11:13:54;97755.97;;;3.31;62.32
23616;BME280;11985;49.404;7.734;2023-03-01T11:18:58;97749.78;;;3.32;62.67
23616;BME280;11985;49.404;7.734;2023-03-01T11:24:03;97743.16;;;3.38;62.30
23616;BME280;11985;49.404;7.734;2023-03-01T11:29:15;97750.31;;;3.36;61.95
23616;BME280;11985;49.404;7.734;2023-03-01T11:34:23;97737.22;;;3.28;62.18
23616;BME280;11985;49.404;7.734;2023-03-01T11:39:29;97735.66;;;3.53;62.08
23616;BME280;11985;49.404;7.734;2023-03-01T11:44:34;97731.22;;;3.45;61.54
23616;BME280;11985;49.404;7.734;2023-03-01T11:55:17;97732.75;;;3.74;61.77
23616;BME280;11985;49.404;7.734;2023-03-01T12:00:39;97729.25;;;3.65;61.51
23616;BME280;11985;49.404;7.734;2023-03-01T12:05:57;97719.97;;;3.62;61.14
23616;BME280;11985;49.404;7.734;2023-03-01T12:11:13;97702.41;;;3.90;61.33
23616;BME280;11985;49.404;7.734;2023-03-01T12:16:25;97693.81;;;3.98;60.74
23616;BME280;11985;49.404;7.734;2023-03-01T12:21:42;97680.13;;;3.96;60.60
23616;BME280;11985;49.404;7.734;2023-03-01T12:26:58;97678.59;;;4.11;60.43
23616;BME280;11985;49.404;7.734;2023-03-01T12:32:24;97674.06;;;4.21;60.33
23616;BME280;11985;49.404;7.734;2023-03-01T12:37:39;97649.31;;;4.26;60.14
23616;BME280;11985;49.404;7.734;2023-03-01T12:42:53;97640.34;;;4.20;59.90
23616;BME280;11985;49.404;7.734;2023-03-01T12:48:12;97647.41;;;4.28;60.07
23616;BME280;11985;49.404;7.734;2023-03-01T12:53:22;97632.41;;;4.38;59.58
23616;BME280;11985;49.404;7.734;2023-03-01T12:58:32;97618.56;;;4.37;59.85
23616;BME280;11985;49.404;7.734;2023-03-01T13:03:42;97605.22;;;4.48;59.81
23616;BME280;11985;49.404;7.734;2023-03-01T13:08:49;97613.91;;;4.65;59.39
23616;BME280;11985;49.404;7.734;2023-03-01T13:14:36;97604.19;;;4.92;59.08
23616;BME280;11985;49.404;7.734;2023-03-01T13:19:38;97608.44;;;5.25;58.11
23616;BME280;11985;49.404;7.734;2023-03-01T13:24:42;97604.84;;;5.26;57.47
23616;BME280;11985;49.404;7.734;2023-03-01T13:29:46;97597.34;;;5.32;57.70
23616;BME280;11985;49.404;7.734;2023-03-01T13:34:53;97580.31;;;5.60;57.36
23616;BME280;11985;49.404;7.734;2023-03-01T13:39:57;97583.09;;;5.67;56.39
23616;BME280;11985;49.404;7.734;2023-03-01T13:45:00;97570.34;;;5.64;56.10
23616;BME280;11985;49.404;7.734;2023-03-01T13:50:03;97571.66;;;5.68;55.94
23616;BME280;11985;49.404;7.734;2023-03-01T13:55:15;97567.56;;;5.65;55.67
23616;BME280;11985;49.404;7.734;2023-03-01T14:00:35;97577.72;;;5.44;55.67
23616;BME280;11985;49.404;7.734;2023-03-01T14:05:38;97563.06;;;5.35;56.13
23616;BME280;11985;49.404;7.734;2023-03-01T14:10:47;97552.22;;;5.70;55.46
23616;BME280;11985;49.404;7.734;2023-03-01T14:16:05;97551.22;;;5.79;55.66
23616;BME280;11985;49.404;7.734;2023-03-01T14:21:13;97556.75;;;5.93;55.07
23616;BME280;11985;49.404;7.734;2023-03-01T14:26:20;97550.53;;;5.86;55.04
23616;BME280;11985;49.404;7.734;2023-03-01T14:31:35;97548.72;;;5.86;54.38
23616;BME280;11985;49.404;7.734;2023-03-01T14:36:37;97542.91;;;5.68;54.08
23616;BME280;11985;49.404;7.734;2023-03-01T14:41:39;97550.94;;;5.58;54.44
23616;BME280;11985;49.404;7.734;2023-03-01T14:46:43;97546.88;;;5.55;54.56
23616;BME280;11985;49.404;7.734;2023-03-01T14:51:47;97552.25;;;5.62;54.28
23616;BME280;11985;49.404;7.734;2023-03-01T14:56:52;97549.63;;;5.62;54.45
23616;BME280;11985;49.404;7.734;2023-03-01T15:01:57;97556.50;;;5.47;53.67
23616;BME280;11985;49.404;7.734;2023-03-01T15:06:59;97554.38;;;5.42;53.75
23616;BME280;11985;49.404;7.734;2023-03-01T15:17:30;97553.19;;;5.77;53.37
23616;BME280;11985;49.404;7.734;2023-03-01T15:22:32;97542.34;;;5.97;52.62
23616;BME280;11985;49.404;7.734;2023-03-01T15:27:34;97538.41;;;6.01;51.97
23616;BME280;11985;49.404;7.734;2023-03-01T15:32:38;97538.75;;;5.98;51.34
23616;BME280;11985;49.404;7.734;2023-03-01T15:37:45;97552.03;;;5.80;51.44
23616;BME280;11985;49.404;7.734;2023-03-01T15:42:47;97555.75;;;5.86;51.13
23616;BME280;11985;49.404;7.734;2023-03-01T15:47:52;97565.56;;;5.92;50.88
23616;BME280;11985;49.404;7.734;2023-03-01T15:52:54;97562.25;;;6.45;50.61
23616;BME280;11985;49.404;7.734;2023-03-01T15:57:58;97560.94;;;7.10;49.17
23616;BME280;11985;49.404;7.734;2023-03-01T16:03:02;97565.13;;;8.45;47.16
23616;BME280;11985;49.404;7.734;2023-03-01T16:08:05;97565.94;;;9.10;44.94
23616;BME280;11985;49.404;7.734;2023-03-01T16:13:07;97571.41;;;9.30;43.92
23616;BME280;11985;49.404;7.734;2023-03-01T16:18:10;97572.91;;;8.75;43.36
23616;BME280;11985;49.404;7.734;2023-03-01T16:23:12;97575.72;;;7.11;44.70
23616;BME280;11985;49.404;7.734;2023-03-01T16:28:14;97567.13;;;6.09;46.23
23616;BME280;11985;49.404;7.734;2023-03-01T16:33:17;97571.16;;;5.64;47.85
23616;BME280;11985;49.404;7.734;2023-03-01T16:38:19;97573.84;;;5.40;48.80
23616;BME280;11985;49.404;7.734;2023-03-01T16:43:20;97568.47;;;5.17;49.36
23616;BME280;11985;49.404;7.734;2023-03-01T16:48:23;97562.91;;;4.79;50.35
23616;BME280;11985;49.404;7.734;2023-03-01T16:53:25;97568.56;;;4.50;51.26
23616;BME280;11985;49.404;7.734;2023-03-01T16:58:27;97562.00;;;4.30;52.10
23616;BME280;11985;49.404;7.734;2023-03-01T17:03:30;97564.84;;;4.10;52.83
23616;BME280;11985;49.404;7.734;2023-03-01T17:08:31;97572.47;;;3.95;53.11
23616;BME280;11985;49.404;7.734;2023-03-01T17:13:33;97575.38;;;3.92;53.66
23616;BME280;11985;49.404;7.734;2023-03-01T17:18:37;97582.38;;;3.92;53.86
23616;BME280;11985;49.404;7.734;2023-03-01T17:23:41;97581.84;;;3.80;54.08
23616;BME280;11985;49.404;7.734;2023-03-01T17:28:43;97561.78;;;3.73;54.53
23616;BME280;11985;49.404;7.734;2023-03-01T17:33:45;97560.72;;;3.57;54.81
23616;BME280;11985;49.404;7.734;2023-03-01T17:38:47;97562.56;;;3.39;55.31
23616;BME280;11985;49.404;7.734;2023-03-01T17:43:49;97568.03;;;3.28;56.04
23616;BME280;11985;49.404;7.734;2023-03-01T17:48:52;97561.72;;;3.12;56.37
23616;BME280;11985;49.404;7.734;2023-03-01T17:53:53;97564.25;;;3.04;56.49
23616;BME280;11985;49.404;7.734;2023-03-01T17:58:55;97562.56;;;2.95;56.92
23616;BME280;11985;49.404;7.734;2023-03-01T18:03:58;97564.72;;;2.82;57.36
23616;BME280;11985;49.404;7.734;2023-03-01T18:08:59;97565.84;;;2.79;57.69
23616;BME280;11985;49.404;7.734;2023-03-01T18:14:01;97583.00;;;2.90;57.41
23616;BME280;11985;49.404;7.734;2023-03-01T18:19:05;97580.25;;;2.91;57.44
23616;BME280;11985;49.404;7.734;2023-03-01T18:24:06;97589.63;;;2.84;57.57
23616;BME280;11985;49.404;7.734;2023-03-01T18:29:08;97585.84;;;2.79;57.79
23616;BME280;11985;49.404;7.734;2023-03-01T18:34:13;97591.31;;;2.76;57.98
23616;BME280;11985;49.404;7.734;2023-03-01T18:39:16;97600.38;;;2.72;58.28
23616;BME280;11985;49.404;7.734;2023-03-01T18:44:19;97593.19;;;2.65;58.35
23616;BME280;11985;49.404;7.734;2023-03-01T18:49:22;97578.59;;;2.55;58.55
23616;BME280;11985;49.404;7.734;2023-03-01T18:54:23;97587.44;;;2.44;59.17
23616;BME280;11985;49.404;7.734;2023-03-01T18:59:25;97587.06;;;2.39;59.18
23616;BME280;11985;49.404;7.734;2023-03-01T19:04:28;97579.84;;;2.33;59.66
23616;BME280;11985;49.404;7.734;2023-03-01T19:09:29;97574.34;;;2.36;59.94
23616;BME280;11985;49.404;7.734;2023-03-01T19:14:31;97571.16;;;2.42;59.73
23616;BME280;11985;49.404;7.734;2023-03-01T19:19:34;97570.72;;;2.47;59.74
23616;BME280;11985;49.404;7.734;2023-03-01T19:24:36;97582.00;;;2.37;59.79
23616;BME280;11985;49.404;7.734;2023-03-01T19:29:37;97573.44;;;2.27;60.08
23616;BME280;11985;49.404;7.734;2023-03-01T19:34:40;97576.16;;;2.08;60.32
23616;BME280;11985;49.404;7.734;2023-03-01T19:39:42;97583.91;;;1.90;60.97
23616;BME280;11985;49.404;7.734;2023-03-01T19:44:43;97581.75;;;1.76;61.31
23616;BME280;11985;49.404;7.734;2023-03-01T19:49:46;97573.06;;;1.67;61.70
23616;BME280;11985;49.404;7.734;2023-03-01T19:54:48;97570.13;;;1.43;62.66
23616;BME280;11985;49.404;7.734;2023-03-01T19:59:50;97574.66;;;1.31;62.74
23616;BME280;11985;49.404;7.734;2023-03-01T20:04:55;97587.06;;;1.37;63.09
23616;BME280;11985;49.404;7.734;2023-03-01T20:09:56;97578.06;;;1.41;62.99
23616;BME280;11985;49.404;7.734;2023-03-01T20:15:00;97572.03;;;1.50;63.33
23616;BME280;11985;49.404;7.734;2023-03-01T20:20:03;97587.03;;;1.56;63.07
23616;BME280;11985;49.404;7.734;2023-03-01T20:25:06;97572.03;;;1.50;63.56
23616;BME280;11985;49.404;7.734;2023-03-01T20:30:09;97576.28;;;1.32;63.67
23616;BME280;11985;49.404;7.734;2023-03-01T20:35:12;97579.44;;;1.16;63.78
23616;BME280;11985;49.404;7.734;2023-03-01T20:40:14;97578.78;;;1.04;64.75
23616;BME280;11985;49.404;7.734;2023-03-01T20:45:16;97578.13;;;1.02;65.13
23616;BME280;11985;49.404;7.734;2023-03-01T20:50:19;97573.06;;;1.01;65.49
23616;BME280;11985;49.404;7.734;2023-03-01T20:55:21;97569.94;;;0.97;65.47
23616;BME280;11985;49.404;7.734;2023-03-01T21:00:23;97568.28;;;0.96;65.59
23616;BME280;11985;49.404;7.734;2023-03-01T21:05:25;97564.47;;;0.91;65.61
23616;BME280;11985;49.404;7.734;2023-03-01T21:10:28;97558.19;;;1.03;66.26
23616;BME280;11985;49.404;7.734;2023-03-01T21:15:30;97561.44;;;1.15;65.83
23616;BME280;11985;49.404;7.734;2023-03-01T21:20:33;97557.38;;;1.12;65.83
23616;BME280;11985;49.404;7.734;2023-03-01T21:25:42;97556.56;;;1.02;65.96
23616;BME280;11985;49.404;7.734;2023-03-01T21:30:44;97550.28;;;0.85;66.23
23616;BME280;11985;49.404;7.734;2023-03-01T21:35:47;97540.72;;;0.76;66.63
23616;BME280;11985;49.404;7.734;2023-03-01T21:40:48;97547.84;;;0.74;67.06
23616;BME280;11985;49.404;7.734;2023-03-01T21:45:50;97538.28;;;0.65;67.51
23616;BME280;11985;49.404;7.734;2023-03-01T21:50:56;97536.94;;;0.51;67.46
23616;BME280;11985;49.404;7.734;2023-03-01T21:55:59;97536.25;;;0.39;68.08
23616;BME280;11985;49.404;7.734;2023-03-01T22:01:06;97536.38;;;0.28;68.25
23616;BME280;11985;49.404;7.734;2023-03-01T22:06:12;97526.63;;;0.11;69.47
23616;BME280;11985;49.404;7.734;2023-03-01T22:11:18;97525.13;;;-0.02;69.53
23616;BME280;11985;49.404;7.734;2023-03-01T22:16:22;97522.09;;;-0.07;70.08
23616;BME280;11985;49.404;7.734;2023-03-01T22:21:26;97522.78;;;-0.14;70.23
23616;BME280;11985;49.404;7.734;2023-03-01T22:26:29;97525.09;;;-0.21;70.52
23616;BME280;11985;49.404;7.734;2023-03-01T22:31:30;97529.84;;;-0.26;71.02
23616;BME280;11985;49.404;7.734;2023-03-01T22:36:34;97522.03;;;-0.36;71.30
23616;BME280;11985;49.404;7.734;2023-03-01T22:41:37;97527.97;;;-0.45;72.07
23616;BME280;11985;49.404;7.734;2023-03-01T22:46:40;97517.09;;;-0.48;72.30
23616;BME280;11985;49.404;7.734;2023-03-01T22:51:43;97515.47;;;-0.49;72.48
23616;BME280;11985;49.404;7.734;2023-03-01T22:56:46;97526.06;;;-0.52;73.25
23616;BME280;11985;49.404;7.734;2023-03-01T23:01:49;97519.63;;;-0.58;73.13
23616;BME280;11985;49.404;7.734;2023-03-01T23:06:52;97521.63;;;-0.62;73.72
23616;BME280;11985;49.404;7.734;2023-03-01T23:11:54;97514.41;;;-0.68;73.92
23616;BME280;11985;49.404;7.734;2023-03-01T23:16:56;97518.09;;;-0.70;74.54
23616;BME280;11985;49.404;7.734;2023-03-01T23:22:01;97517.25;;;-0.71;74.61
23616;BME280;11985;49.404;7.734;2023-03-01T23:27:03;97512.59;;;-0.77;74.54
23616;BME280;11985;49.404;7.734;2023-03-01T23:32:04;97503.47;;;-0.81;75.14
23616;BME280;11985;49.404;7.734;2023-03-01T23:37:07;97509.00;;;-0.86;75.44
23616;BME280;11985;49.404;7.734;2023-03-01T23:42:09;97509.78;;;-0.95;75.37
23616;BME280;11985;49.404;7.734;2023-03-01T23:47:11;97506.63;;;-0.98;75.93
23616;BME280;11985;49.404;7.734;2023-03-01T23:52:13;97492.91;;;-0.99;76.09
23616;BME280;11985;49.404;7.734;2023-03-01T23:57:16;97499.94;;;-1.01;76.62
